Free Maverick — A8GH3 — position and weather

sailwx.info

Track history (hours):
 
Tides and Currents Weather Stations Pressure Air Temp Water Temp Dewpoint Dewpoint Depression Visibility Wind Speed Wind Dir Waves Ship Positions

Free Maverick

Last reported at 2014-Oct-23 17:16 UTC. Time now 2014-Oct-30 16:06 UTC.
Position N 41°20' E 029°42'.

Length 153 m; draft 5.2 m.

Type: Cargo ship. MMSI: 636013999.

Date/timePositionNaut miles runAvg speedWind from/ knotsBaromVisibWave heightAir tempDewpointWater temp
2014-Oct-23 17:16N 41°20' E 029°42'913.0
2014-Oct-23 16:33N 41°18' E 029°30'1312.9
2014-Oct-23 15:33N 41°16' E 029°13'2010.2
2014-Oct-23 13:33N 40°58' E 028°59'1110.6
2014-Oct-23 12:33N 40°49' E 028°51'2 0.8
2014-Oct-23 10:28N 40°48' E 028°51'0 0.5
2014-Oct-23 09:32N 40°47' E 028°51'1110.8
2014-Oct-23 08:33N 40°49' E 028°37'240 9.1
2014-Oct-22 06:11N 38°11' E 024°44'19 9.7
2014-Oct-22 04:14N 37°58' E 024°27'1 1.4
2014-Oct-22 03:31N 37°59' E 024°27'0 0.0
2014-Oct-22 02:31N 37°59' E 024°27'0 0.0
2014-Oct-22 00:31N 37°59' E 024°27'0 0.0
2014-Oct-21 21:25N 37°59' E 024°27'0 0.0
2014-Oct-21 20:13N 37°59' E 024°27'0 0.0
2014-Oct-21 19:13N 37°59' E 024°27'0 0.0
2014-Oct-21 18:31N 37°59' E 024°27'0 0.2
2014-Oct-21 17:31N 37°59' E 024°27'0 0.1
2014-Oct-21 16:25N 37°59' E 024°27'0 0.0
2014-Oct-21 14:25N 37°59' E 024°27'0 0.0
2014-Oct-21 13:19N 37°59' E 024°27'0 0.0
2014-Oct-21 11:31N 37°59' E 024°27'0 0.0
2014-Oct-21 10:13N 37°59' E 024°27'0 0.0
2014-Oct-21 09:25N 37°59' E 024°27'0 0.0
2014-Oct-21 04:24N 37°59' E 024°27'0 0.0
2014-Oct-21 03:30N 37°59' E 024°27'0 0.0
2014-Oct-21 02:30N 37°59' E 024°27'0 0.0
2014-Oct-21 01:24N 37°59' E 024°27'0 0.0
2014-Oct-20 12:12N 37°59' E 024°27'0 0.0
2014-Oct-20 11:30N 37°59' E 024°27'0 0.0
2014-Oct-18 17:23N 37°59' E 024°27'0 0.0
2014-Oct-18 16:05N 37°59' E 024°27'0 0.1
2014-Oct-18 15:05N 37°59' E 024°27'0 0.1
2014-Oct-18 11:10N 37°59' E 024°27'6 0.5
2014-Oct-17 22:33N 37°56' E 024°34'2410.4
2014-Oct-17 20:17N 37°58' E 025°04'912.1
2014-Oct-17 19:32N 37°55' E 025°14'1612.7
2014-Oct-17 18:18N 37°49' E 025°33'1012.7
2014-Oct-17 17:30N 37°44' E 025°44'6 1.3
2014-Oct-17 13:03N 37°39' E 025°47'2 1.1
2014-Oct-17 11:33N 37°37' E 025°45'1 0.9
2014-Oct-17 10:30N 37°37' E 025°44'1 1.4
2014-Oct-17 09:33N 37°37' E 025°42'2 1.7
2014-Oct-17 08:15N 37°38' E 025°40'3 1.8
2014-Oct-17 06:27N 37°40' E 025°36'2 2.2
2014-Oct-17 05:33N 37°41' E 025°35'2 2.0
2014-Oct-17 04:33N 37°43' E 025°33'9 9.5
2014-Oct-17 03:33N 37°52' E 025°36'1110.8
2014-Oct-17 02:33N 38°03' E 025°39'1 1.0
2014-Oct-17 01:28N 38°03' E 025°38'1 0.8
2014-Oct-17 00:28N 38°03' E 025°37'1 1.4
2014-Oct-16 23:28N 38°02' E 025°36'1 0.9
2014-Oct-16 22:28N 38°01' E 025°35'1 0.8
2014-Oct-16 21:28N 38°00' E 025°35'1 1.1
2014-Oct-16 20:28N 37°59' E 025°34'1 1.1
2014-Oct-16 19:28N 37°58' E 025°34'1 1.5
2014-Oct-16 18:34N 37°57' E 025°34'2 1.5
2014-Oct-16 17:33N 37°55' E 025°33'1 1.4
2014-Oct-16 16:33N 37°54' E 025°33'2 1.8
2014-Oct-16 15:33N 37°52' E 025°32'2 1.9
2014-Oct-16 14:33N 37°50' E 025°32'2 1.9
2014-Oct-16 13:33N 37°49' E 025°32'2 1.9
2014-Oct-16 12:33N 37°47' E 025°32'5 4.7
2014-Oct-16 11:33N 37°42' E 025°33'9 9.1
2014-Oct-16 10:33N 37°34' E 025°28'1211.7
2014-Oct-16 09:33N 37°30' E 025°15'1111.4
2014-Oct-16 08:34N 37°26' E 025°01'2 2.2
2014-Oct-16 07:30N 37°25' E 024°58'0 0.1
2014-Oct-16 06:25N 37°25' E 024°59'4 4.7
2014-Oct-16 05:33N 37°21' E 025°01'1313.2
2014-Oct-16 04:33N 37°09' E 024°58'1313.1
2014-Oct-16 03:33N 36°55' E 024°55'1313.2
2014-Oct-16 02:33N 36°47' E 025°08'1413.6
2014-Oct-16 01:33N 36°37' E 025°19'1313.5
2014-Oct-16 00:33N 36°27' E 025°30'1313.0
2014-Oct-15 23:33N 36°16' E 025°39'1313.2
2014-Oct-15 22:33N 36°05' E 025°49'1312.9
2014-Oct-15 21:33N 35°54' E 025°58'1313.0
2014-Oct-15 20:33N 35°43' E 026°06'1312.8
2014-Oct-15 19:32N 35°33' E 026°16'  
Track history (hours):
 
Tides and Currents Weather Stations Pressure Air Temp Water Temp Dewpoint Dewpoint Depression Visibility Wind Speed Wind Dir Waves Ship Positions

Free Maverick

Last reported at 2014-Oct-23 17:16 UTC. Time now 2014-Oct-30 16:06 UTC.
Position N 41°20' E 029°42'.

Length 153 m; draft 5.2 m.

Type: Cargo ship. MMSI: 636013999.

Date/timePositionNaut miles runAvg speedWind from/ knotsBaromVisibWave heightAir tempDewpointWater temp
2014-Oct-23 17:16N 41°20' E 029°42'913.0
2014-Oct-23 16:33N 41°18' E 029°30'1312.9
2014-Oct-23 15:33N 41°16' E 029°13'2010.2
2014-Oct-23 13:33N 40°58' E 028°59'1110.6
2014-Oct-23 12:33N 40°49' E 028°51'2 0.8
2014-Oct-23 10:28N 40°48' E 028°51'0 0.5
2014-Oct-23 09:32N 40°47' E 028°51'1110.8
2014-Oct-23 08:33N 40°49' E 028°37'240 9.1
2014-Oct-22 06:11N 38°11' E 024°44'19 9.7
2014-Oct-22 04:14N 37°58' E 024°27'1 1.4
2014-Oct-22 03:31N 37°59' E 024°27'0 0.0
2014-Oct-22 02:31N 37°59' E 024°27'0 0.0
2014-Oct-22 00:31N 37°59' E 024°27'0 0.0
2014-Oct-21 21:25N 37°59' E 024°27'0 0.0
2014-Oct-21 20:13N 37°59' E 024°27'0 0.0
2014-Oct-21 19:13N 37°59' E 024°27'0 0.0
2014-Oct-21 18:31N 37°59' E 024°27'0 0.2
2014-Oct-21 17:31N 37°59' E 024°27'0 0.1
2014-Oct-21 16:25N 37°59' E 024°27'0 0.0
2014-Oct-21 14:25N 37°59' E 024°27'0 0.0
2014-Oct-21 13:19N 37°59' E 024°27'0 0.0
2014-Oct-21 11:31N 37°59' E 024°27'0 0.0
2014-Oct-21 10:13N 37°59' E 024°27'0 0.0
2014-Oct-21 09:25N 37°59' E 024°27'0 0.0
2014-Oct-21 04:24N 37°59' E 024°27'0 0.0
2014-Oct-21 03:30N 37°59' E 024°27'0 0.0
2014-Oct-21 02:30N 37°59' E 024°27'0 0.0
2014-Oct-21 01:24N 37°59' E 024°27'0 0.0
2014-Oct-20 12:12N 37°59' E 024°27'0 0.0
2014-Oct-20 11:30N 37°59' E 024°27'0 0.0
2014-Oct-18 17:23N 37°59' E 024°27'0 0.0
2014-Oct-18 16:05N 37°59' E 024°27'0 0.1
2014-Oct-18 15:05N 37°59' E 024°27'0 0.1
2014-Oct-18 11:10N 37°59' E 024°27'6 0.5
2014-Oct-17 22:33N 37°56' E 024°34'2410.4
2014-Oct-17 20:17N 37°58' E 025°04'912.1
2014-Oct-17 19:32N 37°55' E 025°14'1612.7
2014-Oct-17 18:18N 37°49' E 025°33'1012.7
2014-Oct-17 17:30N 37°44' E 025°44'6 1.3
2014-Oct-17 13:03N 37°39' E 025°47'2 1.1
2014-Oct-17 11:33N 37°37' E 025°45'1 0.9
2014-Oct-17 10:30N 37°37' E 025°44'1 1.4
2014-Oct-17 09:33N 37°37' E 025°42'2 1.7
2014-Oct-17 08:15N 37°38' E 025°40'3 1.8
2014-Oct-17 06:27N 37°40' E 025°36'2 2.2
2014-Oct-17 05:33N 37°41' E 025°35'2 2.0
2014-Oct-17 04:33N 37°43' E 025°33'9 9.5
2014-Oct-17 03:33N 37°52' E 025°36'1110.8
2014-Oct-17 02:33N 38°03' E 025°39'1 1.0
2014-Oct-17 01:28N 38°03' E 025°38'1 0.8
2014-Oct-17 00:28N 38°03' E 025°37'1 1.4
2014-Oct-16 23:28N 38°02' E 025°36'1 0.9
2014-Oct-16 22:28N 38°01' E 025°35'1 0.8
2014-Oct-16 21:28N 38°00' E 025°35'1 1.1
2014-Oct-16 20:28N 37°59' E 025°34'1 1.1
2014-Oct-16 19:28N 37°58' E 025°34'1 1.5
2014-Oct-16 18:34N 37°57' E 025°34'2 1.5
2014-Oct-16 17:33N 37°55' E 025°33'1 1.4
2014-Oct-16 16:33N 37°54' E 025°33'2 1.8
2014-Oct-16 15:33N 37°52' E 025°32'2 1.9
2014-Oct-16 14:33N 37°50' E 025°32'2 1.9
2014-Oct-16 13:33N 37°49' E 025°32'2 1.9
2014-Oct-16 12:33N 37°47' E 025°32'5 4.7
2014-Oct-16 11:33N 37°42' E 025°33'9 9.1
2014-Oct-16 10:33N 37°34' E 025°28'1211.7
2014-Oct-16 09:33N 37°30' E 025°15'1111.4
2014-Oct-16 08:34N 37°26' E 025°01'2 2.2
2014-Oct-16 07:30N 37°25' E 024°58'0 0.1
2014-Oct-16 06:25N 37°25' E 024°59'4 4.7
2014-Oct-16 05:33N 37°21' E 025°01'1313.2
2014-Oct-16 04:33N 37°09' E 024°58'1313.1
2014-Oct-16 03:33N 36°55' E 024°55'1313.2
2014-Oct-16 02:33N 36°47' E 025°08'1413.6
2014-Oct-16 01:33N 36°37' E 025°19'1313.5
2014-Oct-16 00:33N 36°27' E 025°30'1313.0
2014-Oct-15 23:33N 36°16' E 025°39'1313.2
2014-Oct-15 22:33N 36°05' E 025°49'1312.9
2014-Oct-15 21:33N 35°54' E 025°58'1313.0
2014-Oct-15 20:33N 35°43' E 026°06'1312.8
2014-Oct-15 19:32N 35°33' E 026°16'  

Dump ship's entire track history